sensor_id;sensor_type;location;lat;lon;timestamp;P1;durP1;ratioP1;P2;durP2;ratioP2
54959;SDS011;40860;51.710;8.736;2023-04-01T00:02:23;0.77;;;0.50;;
54959;SDS011;40860;51.710;8.736;2023-04-01T00:06:26;0.65;;;0.30;;
54959;SDS011;40860;51.710;8.736;2023-04-01T00:10:29;1.02;;;0.40;;
54959;SDS011;40860;51.710;8.736;2023-04-01T00:14:32;0.93;;;0.40;;
54959;SDS011;40860;51.710;8.736;2023-04-01T00:18:37;1.15;;;0.38;;
54959;SDS011;40860;51.710;8.736;2023-04-01T00:22:40;1.88;;;0.40;;
54959;SDS011;40860;51.710;8.736;2023-04-01T00:26:43;1.90;;;0.52;;
54959;SDS011;40860;51.710;8.736;2023-04-01T00:30:46;1.38;;;0.52;;
54959;SDS011;40860;51.710;8.736;2023-04-01T00:34:51;1.10;;;0.77;;
54959;SDS011;40860;51.710;8.736;2023-04-01T00:38:54;1.05;;;0.40;;
54959;SDS011;40860;51.710;8.736;2023-04-01T00:42:57;1.50;;;0.40;;
54959;SDS011;40860;51.710;8.736;2023-04-01T00:47:00;0.63;;;0.43;;
54959;SDS011;40860;51.710;8.736;2023-04-01T00:51:06;2.38;;;0.40;;
54959;SDS011;40860;51.710;8.736;2023-04-01T00:55:10;1.50;;;0.30;;
54959;SDS011;40860;51.710;8.736;2023-04-01T00:59:18;1.38;;;0.50;;
54959;SDS011;40860;51.710;8.736;2023-04-01T01:03:26;2.67;;;0.70;;
54959;SDS011;40860;51.710;8.736;2023-04-01T01:07:31;0.88;;;0.30;;
54959;SDS011;40860;51.710;8.736;2023-04-01T01:11:41;1.55;;;0.35;;
54959;SDS011;40860;51.710;8.736;2023-04-01T01:15:46;0.68;;;0.30;;
54959;SDS011;40860;51.710;8.736;2023-04-01T01:24:39;3.33;;;0.57;;
54959;SDS011;40860;51.710;8.736;2023-04-01T01:28:53;2.40;;;0.65;;
54959;SDS011;40860;51.710;8.736;2023-04-01T01:33:11;1.88;;;0.50;;
54959;SDS011;40860;51.710;8.736;2023-04-01T01:37:24;0.88;;;0.40;;
54959;SDS011;40860;51.710;8.736;2023-04-01T01:41:29;0.77;;;0.30;;
54959;SDS011;40860;51.710;8.736;2023-04-01T01:45:34;0.75;;;0.30;;
54959;SDS011;40860;51.710;8.736;2023-04-01T01:49:41;2.40;;;0.30;;
54959;SDS011;40860;51.710;8.736;2023-04-01T01:53:46;1.75;;;0.50;;
54959;SDS011;40860;51.710;8.736;2023-04-01T01:57:51;2.03;;;0.40;;
54959;SDS011;40860;51.710;8.736;2023-04-01T02:01:55;0.57;;;0.30;;
54959;SDS011;40860;51.710;8.736;2023-04-01T02:05:59;0.88;;;0.40;;
54959;SDS011;40860;51.710;8.736;2023-04-01T02:10:05;0.60;;;0.20;;
54959;SDS011;40860;51.710;8.736;2023-04-01T02:14:10;1.13;;;0.20;;
54959;SDS011;40860;51.710;8.736;2023-04-01T02:18:16;1.35;;;0.40;;
54959;SDS011;40860;51.710;8.736;2023-04-01T02:22:22;0.22;;;0.15;;
54959;SDS011;40860;51.710;8.736;2023-04-01T02:26:29;0.50;;;0.22;;
54959;SDS011;40860;51.710;8.736;2023-04-01T02:30:33;0.15;;;0.10;;
54959;SDS011;40860;51.710;8.736;2023-04-01T02:34:38;0.95;;;0.30;;
54959;SDS011;40860;51.710;8.736;2023-04-01T02:38:41;0.80;;;0.30;;
54959;SDS011;40860;51.710;8.736;2023-04-01T02:42:47;0.73;;;0.28;;
54959;SDS011;40860;51.710;8.736;2023-04-01T02:46:49;0.55;;;0.55;;
54959;SDS011;40860;51.710;8.736;2023-04-01T02:50:53;0.63;;;0.20;;
54959;SDS011;40860;51.710;8.736;2023-04-01T02:54:57;0.38;;;0.10;;
54959;SDS011;40860;51.710;8.736;2023-04-01T02:59:01;2.20;;;0.30;;
54959;SDS011;40860;51.710;8.736;2023-04-01T03:03:04;0.75;;;0.20;;
54959;SDS011;40860;51.710;8.736;2023-04-01T03:07:07;0.13;;;0.10;;
54959;SDS011;40860;51.710;8.736;2023-04-01T03:11:12;1.13;;;0.30;;
54959;SDS011;40860;51.710;8.736;2023-04-01T03:15:16;0.75;;;0.20;;
54959;SDS011;40860;51.710;8.736;2023-04-01T03:19:19;1.10;;;0.35;;
54959;SDS011;40860;51.710;8.736;2023-04-01T03:23:22;0.70;;;0.28;;
54959;SDS011;40860;51.710;8.736;2023-04-01T03:27:25;0.80;;;0.30;;
54959;SDS011;40860;51.710;8.736;2023-04-01T03:31:30;0.10;;;0.10;;
54959;SDS011;40860;51.710;8.736;2023-04-01T03:35:33;0.32;;;0.17;;
54959;SDS011;40860;51.710;8.736;2023-04-01T03:39:37;0.73;;;0.20;;
54959;SDS011;40860;51.710;8.736;2023-04-01T03:43:40;0.82;;;0.13;;
54959;SDS011;40860;51.710;8.736;2023-04-01T03:47:44;0.30;;;0.10;;
54959;SDS011;40860;51.710;8.736;2023-04-01T03:51:47;1.42;;;0.22;;
54959;SDS011;40860;51.710;8.736;2023-04-01T03:55:50;0.32;;;0.22;;
54959;SDS011;40860;51.710;8.736;2023-04-01T03:59:53;0.30;;;0.20;;
54959;SDS011;40860;51.710;8.736;2023-04-01T04:03:57;0.60;;;0.10;;
54959;SDS011;40860;51.710;8.736;2023-04-01T04:08:03;0.25;;;0.20;;
54959;SDS011;40860;51.710;8.736;2023-04-01T04:12:07;0.22;;;0.10;;
54959;SDS011;40860;51.710;8.736;2023-04-01T04:16:10;0.20;;;0.10;;
54959;SDS011;40860;51.710;8.736;2023-04-01T04:20:19;0.15;;;0.10;;
54959;SDS011;40860;51.710;8.736;2023-04-01T04:24:22;0.22;;;0.20;;
54959;SDS011;40860;51.710;8.736;2023-04-01T04:28:34;1.95;;;0.20;;
54959;SDS011;40860;51.710;8.736;2023-04-01T04:32:37;0.52;;;0.20;;
54959;SDS011;40860;51.710;8.736;2023-04-01T04:36:43;1.27;;;0.20;;
54959;SDS011;40860;51.710;8.736;2023-04-01T04:40:46;0.13;;;0.10;;
54959;SDS011;40860;51.710;8.736;2023-04-01T04:44:49;0.20;;;0.10;;
54959;SDS011;40860;51.710;8.736;2023-04-01T04:48:52;1.85;;;0.10;;
54959;SDS011;40860;51.710;8.736;2023-04-01T04:52:56;0.82;;;0.20;;
54959;SDS011;40860;51.710;8.736;2023-04-01T04:56:59;1.27;;;0.20;;
54959;SDS011;40860;51.710;8.736;2023-04-01T05:01:07;1.73;;;0.10;;
54959;SDS011;40860;51.710;8.736;2023-04-01T05:05:13;1.35;;;0.20;;
54959;SDS011;40860;51.710;8.736;2023-04-01T05:09:17;0.90;;;0.28;;
54959;SDS011;40860;51.710;8.736;2023-04-01T05:13:20;0.45;;;0.20;;
54959;SDS011;40860;51.710;8.736;2023-04-01T05:17:23;0.15;;;0.10;;
54959;SDS011;40860;51.710;8.736;2023-04-01T05:21:26;0.38;;;0.10;;
54959;SDS011;40860;51.710;8.736;2023-04-01T05:25:32;1.35;;;0.17;;
54959;SDS011;40860;51.710;8.736;2023-04-01T05:29:35;1.38;;;0.10;;
54959;SDS011;40860;51.710;8.736;2023-04-01T05:33:41;0.20;;;0.20;;
54959;SDS011;40860;51.710;8.736;2023-04-01T05:37:44;0.38;;;0.20;;
54959;SDS011;40860;51.710;8.736;2023-04-01T05:41:48;2.42;;;0.15;;
54959;SDS011;40860;51.710;8.736;2023-04-01T05:45:51;1.00;;;0.10;;
54959;SDS011;40860;51.710;8.736;2023-04-01T05:50:10;0.30;;;0.10;;
54959;SDS011;40860;51.710;8.736;2023-04-01T05:54:13;0.22;;;0.17;;
54959;SDS011;40860;51.710;8.736;2023-04-01T05:58:19;0.82;;;0.20;;
54959;SDS011;40860;51.710;8.736;2023-04-01T06:02:22;0.22;;;0.10;;
54959;SDS011;40860;51.710;8.736;2023-04-01T06:06:27;0.88;;;0.30;;
54959;SDS011;40860;51.710;8.736;2023-04-01T06:10:45;0.70;;;0.10;;
54959;SDS011;40860;51.710;8.736;2023-04-01T06:15:01;1.63;;;0.32;;
54959;SDS011;40860;51.710;8.736;2023-04-01T06:19:16;0.28;;;0.20;;
54959;SDS011;40860;51.710;8.736;2023-04-01T06:23:33;0.88;;;0.10;;
54959;SDS011;40860;51.710;8.736;2023-04-01T06:27:55;0.47;;;0.20;;
54959;SDS011;40860;51.710;8.736;2023-04-01T06:32:20;0.88;;;0.47;;
54959;SDS011;40860;51.710;8.736;2023-04-01T06:36:54;0.70;;;0.40;;
54959;SDS011;40860;51.710;8.736;2023-04-01T06:41:19;1.35;;;0.30;;
54959;SDS011;40860;51.710;8.736;2023-04-01T06:45:41;0.82;;;0.22;;
54959;SDS011;40860;51.710;8.736;2023-04-01T06:50:15;0.30;;;0.10;;
54959;SDS011;40860;51.710;8.736;2023-04-01T06:55:07;0.80;;;0.28;;
54959;SDS011;40860;51.710;8.736;2023-04-01T06:59:52;0.65;;;0.20;;
54959;SDS011;40860;51.710;8.736;2023-04-01T07:04:00;0.88;;;0.28;;
54959;SDS011;40860;51.710;8.736;2023-04-01T07:08:09;0.25;;;0.13;;
54959;SDS011;40860;51.710;8.736;2023-04-01T07:12:15;0.82;;;0.35;;
54959;SDS011;40860;51.710;8.736;2023-04-01T07:16:44;1.00;;;0.43;;
54959;SDS011;40860;51.710;8.736;2023-04-01T07:20:51;0.73;;;0.20;;
54959;SDS011;40860;51.710;8.736;2023-04-01T07:24:57;1.05;;;0.30;;
54959;SDS011;40860;51.710;8.736;2023-04-01T07:29:05;0.75;;;0.40;;
54959;SDS011;40860;51.710;8.736;2023-04-01T07:33:28;0.22;;;0.20;;
54959;SDS011;40860;51.710;8.736;2023-04-01T07:37:42;1.70;;;1.60;;
54959;SDS011;40860;51.710;8.736;2023-04-01T07:41:55;0.77;;;0.28;;
54959;SDS011;40860;51.710;8.736;2023-04-01T07:46:06;0.40;;;0.30;;
54959;SDS011;40860;51.710;8.736;2023-04-01T07:50:19;1.00;;;0.40;;
54959;SDS011;40860;51.710;8.736;2023-04-01T07:54:29;1.05;;;0.40;;
54959;SDS011;40860;51.710;8.736;2023-04-01T07:58:46;0.20;;;0.20;;
54959;SDS011;40860;51.710;8.736;2023-04-01T08:03:17;0.47;;;0.47;;
54959;SDS011;40860;51.710;8.736;2023-04-01T08:07:35;0.13;;;0.10;;
54959;SDS011;40860;51.710;8.736;2023-04-01T08:12:14;0.60;;;0.30;;
54959;SDS011;40860;51.710;8.736;2023-04-01T08:16:37;0.75;;;0.45;;
54959;SDS011;40860;51.710;8.736;2023-04-01T08:20:55;0.20;;;0.20;;
54959;SDS011;40860;51.710;8.736;2023-04-01T08:25:02;0.40;;;0.20;;
54959;SDS011;40860;51.710;8.736;2023-04-01T08:29:10;0.10;;;0.10;;
54959;SDS011;40860;51.710;8.736;2023-04-01T08:33:19;2.72;;;0.50;;
54959;SDS011;40860;51.710;8.736;2023-04-01T08:37:35;3.47;;;2.42;;
54959;SDS011;40860;51.710;8.736;2023-04-01T08:51:10;0.10;;;0.10;;
54959;SDS011;40860;51.710;8.736;2023-04-01T08:55:38;0.35;;;0.22;;
54959;SDS011;40860;51.710;8.736;2023-04-01T08:59:55;0.10;;;0.10;;
54959;SDS011;40860;51.710;8.736;2023-04-01T09:04:25;1.15;;;0.68;;
54959;SDS011;40860;51.710;8.736;2023-04-01T09:08:38;0.32;;;0.20;;
54959;SDS011;40860;51.710;8.736;2023-04-01T09:12:59;0.17;;;0.10;;
54959;SDS011;40860;51.710;8.736;2023-04-01T09:17:28;0.45;;;0.20;;
54959;SDS011;40860;51.710;8.736;2023-04-01T09:21:50;0.28;;;0.20;;
54959;SDS011;40860;51.710;8.736;2023-04-01T09:26:21;1.85;;;0.68;;
54959;SDS011;40860;51.710;8.736;2023-04-01T09:30:57;1.17;;;0.43;;
54959;SDS011;40860;51.710;8.736;2023-04-01T09:35:20;0.15;;;0.15;;
54959;SDS011;40860;51.710;8.736;2023-04-01T09:39:34;0.50;;;0.40;;
54959;SDS011;40860;51.710;8.736;2023-04-01T09:43:54;0.90;;;0.40;;
54959;SDS011;40860;51.710;8.736;2023-04-01T09:48:12;0.13;;;0.13;;
54959;SDS011;40860;51.710;8.736;2023-04-01T09:52:25;1.02;;;0.20;;
54959;SDS011;40860;51.710;8.736;2023-04-01T09:56:57;0.30;;;0.30;;
54959;SDS011;40860;51.710;8.736;2023-04-01T10:01:58;0.82;;;0.40;;
54959;SDS011;40860;51.710;8.736;2023-04-01T10:06:33;2.60;;;0.47;;
54959;SDS011;40860;51.710;8.736;2023-04-01T10:16:14;1.38;;;0.40;;
54959;SDS011;40860;51.710;8.736;2023-04-01T10:20:40;0.28;;;0.28;;
54959;SDS011;40860;51.710;8.736;2023-04-01T10:25:05;0.17;;;0.13;;
54959;SDS011;40860;51.710;8.736;2023-04-01T10:34:15;0.50;;;0.30;;
54959;SDS011;40860;51.710;8.736;2023-04-01T10:38:46;4.15;;;2.30;;
54959;SDS011;40860;51.710;8.736;2023-04-01T10:47:58;2.03;;;0.40;;
54959;SDS011;40860;51.710;8.736;2023-04-01T10:52:21;0.38;;;0.30;;
54959;SDS011;40860;51.710;8.736;2023-04-01T10:56:54;0.40;;;0.40;;
54959;SDS011;40860;51.710;8.736;2023-04-01T11:01:27;0.30;;;0.30;;
54959;SDS011;40860;51.710;8.736;2023-04-01T11:06:54;1.00;;;0.50;;
54959;SDS011;40860;51.710;8.736;2023-04-01T11:16:21;0.70;;;0.40;;
54959;SDS011;40860;51.710;8.736;2023-04-01T11:25:29;0.98;;;0.90;;
54959;SDS011;40860;51.710;8.736;2023-04-01T11:30:29;0.80;;;0.80;;
54959;SDS011;40860;51.710;8.736;2023-04-01T11:34:48;0.47;;;0.35;;
54959;SDS011;40860;51.710;8.736;2023-04-01T11:39:03;0.70;;;0.57;;
54959;SDS011;40860;51.710;8.736;2023-04-01T11:43:37;0.50;;;0.50;;
54959;SDS011;40860;51.710;8.736;2023-04-01T11:48:03;1.05;;;0.60;;
54959;SDS011;40860;51.710;8.736;2023-04-01T11:52:21;0.50;;;0.50;;
54959;SDS011;40860;51.710;8.736;2023-04-01T11:56:38;0.50;;;0.40;;
54959;SDS011;40860;51.710;8.736;2023-04-01T12:01:09;0.47;;;0.47;;
54959;SDS011;40860;51.710;8.736;2023-04-01T12:05:30;0.50;;;0.50;;
54959;SDS011;40860;51.710;8.736;2023-04-01T12:09:42;0.40;;;0.40;;
54959;SDS011;40860;51.710;8.736;2023-04-01T12:13:52;0.98;;;0.40;;
54959;SDS011;40860;51.710;8.736;2023-04-01T12:18:03;1.10;;;0.70;;
54959;SDS011;40860;51.710;8.736;2023-04-01T12:22:22;1.40;;;0.60;;
54959;SDS011;40860;51.710;8.736;2023-04-01T12:31:03;0.50;;;0.50;;
54959;SDS011;40860;51.710;8.736;2023-04-01T12:35:21;1.05;;;0.80;;
54959;SDS011;40860;51.710;8.736;2023-04-01T12:39:32;0.60;;;0.60;;
54959;SDS011;40860;51.710;8.736;2023-04-01T12:43:57;1.00;;;0.60;;
54959;SDS011;40860;51.710;8.736;2023-04-01T12:48:33;1.55;;;0.60;;
54959;SDS011;40860;51.710;8.736;2023-04-01T12:52:52;0.60;;;0.60;;
54959;SDS011;40860;51.710;8.736;2023-04-01T12:57:09;0.80;;;0.80;;
54959;SDS011;40860;51.710;8.736;2023-04-01T13:01:34;0.90;;;0.90;;
54959;SDS011;40860;51.710;8.736;2023-04-01T13:10:31;1.70;;;1.60;;
54959;SDS011;40860;51.710;8.736;2023-04-01T13:19:37;1.10;;;0.98;;
54959;SDS011;40860;51.710;8.736;2023-04-01T13:24:08;0.70;;;0.65;;
54959;SDS011;40860;51.710;8.736;2023-04-01T13:28:21;1.27;;;0.93;;
54959;SDS011;40860;51.710;8.736;2023-04-01T13:32:31;0.60;;;0.60;;
54959;SDS011;40860;51.710;8.736;2023-04-01T13:36:48;1.40;;;0.70;;
54959;SDS011;40860;51.710;8.736;2023-04-01T13:41:04;1.13;;;0.70;;
54959;SDS011;40860;51.710;8.736;2023-04-01T13:45:15;1.00;;;0.70;;
54959;SDS011;40860;51.710;8.736;2023-04-01T13:49:39;0.88;;;0.88;;
54959;SDS011;40860;51.710;8.736;2023-04-01T13:54:21;0.88;;;0.70;;
54959;SDS011;40860;51.710;8.736;2023-04-01T13:58:43;1.38;;;0.88;;
54959;SDS011;40860;51.710;8.736;2023-04-01T14:03:00;1.27;;;0.80;;
54959;SDS011;40860;51.710;8.736;2023-04-01T14:07:35;1.23;;;0.82;;
54959;SDS011;40860;51.710;8.736;2023-04-01T14:11:51;0.75;;;0.70;;
54959;SDS011;40860;51.710;8.736;2023-04-01T14:16:05;0.70;;;0.70;;
54959;SDS011;40860;51.710;8.736;2023-04-01T14:20:27;0.80;;;0.80;;
54959;SDS011;40860;51.710;8.736;2023-04-01T14:24:45;0.88;;;0.88;;
54959;SDS011;40860;51.710;8.736;2023-04-01T14:29:02;3.55;;;1.40;;
54959;SDS011;40860;51.710;8.736;2023-04-01T14:33:18;0.63;;;0.63;;
54959;SDS011;40860;51.710;8.736;2023-04-01T14:37:37;2.35;;;0.95;;
54959;SDS011;40860;51.710;8.736;2023-04-01T14:42:11;1.23;;;1.13;;
54959;SDS011;40860;51.710;8.736;2023-04-01T14:46:34;1.25;;;1.17;;
54959;SDS011;40860;51.710;8.736;2023-04-01T14:50:57;1.98;;;1.05;;
54959;SDS011;40860;51.710;8.736;2023-04-01T14:55:17;1.58;;;1.00;;
54959;SDS011;40860;51.710;8.736;2023-04-01T14:59:29;1.52;;;1.42;;
54959;SDS011;40860;51.710;8.736;2023-04-01T15:03:33;1.60;;;1.40;;
54959;SDS011;40860;51.710;8.736;2023-04-01T15:07:47;2.05;;;1.63;;
54959;SDS011;40860;51.710;8.736;2023-04-01T15:12:05;1.33;;;1.23;;
54959;SDS011;40860;51.710;8.736;2023-04-01T15:16:20;1.35;;;1.27;;
54959;SDS011;40860;51.710;8.736;2023-04-01T15:20:42;1.40;;;1.30;;
54959;SDS011;40860;51.710;8.736;2023-04-01T15:25:04;1.30;;;0.90;;
54959;SDS011;40860;51.710;8.736;2023-04-01T15:29:29;1.88;;;1.42;;
54959;SDS011;40860;51.710;8.736;2023-04-01T15:33:47;1.45;;;1.00;;
54959;SDS011;40860;51.710;8.736;2023-04-01T15:38:00;2.30;;;1.63;;
54959;SDS011;40860;51.710;8.736;2023-04-01T15:42:12;1.30;;;1.20;;
54959;SDS011;40860;51.710;8.736;2023-04-01T15:46:41;1.15;;;1.13;;
54959;SDS011;40860;51.710;8.736;2023-04-01T15:50:50;1.60;;;1.45;;
54959;SDS011;40860;51.710;8.736;2023-04-01T15:55:13;2.00;;;1.38;;
54959;SDS011;40860;51.710;8.736;2023-04-01T15:59:28;2.30;;;1.50;;
54959;SDS011;40860;51.710;8.736;2023-04-01T16:03:53;1.60;;;1.50;;
54959;SDS011;40860;51.710;8.736;2023-04-01T16:08:11;1.70;;;1.60;;
54959;SDS011;40860;51.710;8.736;2023-04-01T16:12:31;2.63;;;1.92;;
54959;SDS011;40860;51.710;8.736;2023-04-01T16:16:48;1.90;;;1.80;;
54959;SDS011;40860;51.710;8.736;2023-04-01T16:21:02;2.05;;;1.90;;
54959;SDS011;40860;51.710;8.736;2023-04-01T16:25:19;2.78;;;2.00;;
54959;SDS011;40860;51.710;8.736;2023-04-01T16:29:38;2.38;;;2.20;;
54959;SDS011;40860;51.710;8.736;2023-04-01T16:33:49;2.50;;;2.30;;
54959;SDS011;40860;51.710;8.736;2023-04-01T16:37:59;2.42;;;2.22;;
54959;SDS011;40860;51.710;8.736;2023-04-01T16:42:16;3.58;;;3.28;;
54959;SDS011;40860;51.710;8.736;2023-04-01T16:46:27;3.05;;;2.70;;
54959;SDS011;40860;51.710;8.736;2023-04-01T16:50:39;2.63;;;2.50;;
54959;SDS011;40860;51.710;8.736;2023-04-01T16:54:51;2.65;;;2.47;;
54959;SDS011;40860;51.710;8.736;2023-04-01T16:59:03;2.75;;;2.55;;
54959;SDS011;40860;51.710;8.736;2023-04-01T17:03:16;2.88;;;2.67;;
54959;SDS011;40860;51.710;8.736;2023-04-01T17:07:24;2.70;;;2.50;;
54959;SDS011;40860;51.710;8.736;2023-04-01T17:11:34;2.70;;;2.42;;
54959;SDS011;40860;51.710;8.736;2023-04-01T17:15:44;3.75;;;2.70;;
54959;SDS011;40860;51.710;8.736;2023-04-01T17:19:56;2.70;;;2.55;;
54959;SDS011;40860;51.710;8.736;2023-04-01T17:24:21;3.70;;;3.40;;
54959;SDS011;40860;51.710;8.736;2023-04-01T17:28:35;3.03;;;2.83;;
54959;SDS011;40860;51.710;8.736;2023-04-01T17:32:51;3.35;;;3.15;;
54959;SDS011;40860;51.710;8.736;2023-04-01T17:37:05;3.00;;;2.80;;
54959;SDS011;40860;51.710;8.736;2023-04-01T17:41:21;3.10;;;2.90;;
54959;SDS011;40860;51.710;8.736;2023-04-01T17:45:33;4.03;;;3.70;;
54959;SDS011;40860;51.710;8.736;2023-04-01T17:49:49;2.70;;;2.50;;
54959;SDS011;40860;51.710;8.736;2023-04-01T17:54:00;2.63;;;2.42;;
54959;SDS011;40860;51.710;8.736;2023-04-01T17:58:10;2.75;;;2.55;;
54959;SDS011;40860;51.710;8.736;2023-04-01T18:02:21;3.08;;;2.88;;
54959;SDS011;40860;51.710;8.736;2023-04-01T18:06:34;3.10;;;2.90;;
54959;SDS011;40860;51.710;8.736;2023-04-01T18:10:41;3.08;;;2.78;;
54959;SDS011;40860;51.710;8.736;2023-04-01T18:15:02;4.68;;;3.92;;
54959;SDS011;40860;51.710;8.736;2023-04-01T18:19:16;5.38;;;4.88;;
54959;SDS011;40860;51.710;8.736;2023-04-01T18:23:30;7.55;;;6.70;;
54959;SDS011;40860;51.710;8.736;2023-04-01T18:27:45;8.43;;;7.55;;
54959;SDS011;40860;51.710;8.736;2023-04-01T18:31:54;7.35;;;6.53;;
54959;SDS011;40860;51.710;8.736;2023-04-01T18:36:13;6.90;;;6.25;;
54959;SDS011;40860;51.710;8.736;2023-04-01T18:40:23;5.88;;;5.38;;
54959;SDS011;40860;51.710;8.736;2023-04-01T18:44:34;6.10;;;5.55;;
54959;SDS011;40860;51.710;8.736;2023-04-01T18:48:49;7.90;;;6.65;;
54959;SDS011;40860;51.710;8.736;2023-04-01T18:52:58;7.13;;;6.45;;
54959;SDS011;40860;51.710;8.736;2023-04-01T18:57:19;7.60;;;6.28;;
54959;SDS011;40860;51.710;8.736;2023-04-01T19:01:23;6.57;;;5.90;;
54959;SDS011;40860;51.710;8.736;2023-04-01T19:05:33;7.95;;;7.15;;
54959;SDS011;40860;51.710;8.736;2023-04-01T19:09:43;7.53;;;6.80;;
54959;SDS011;40860;51.710;8.736;2023-04-01T19:13:50;6.60;;;5.75;;
54959;SDS011;40860;51.710;8.736;2023-04-01T19:18:05;7.20;;;6.50;;
54959;SDS011;40860;51.710;8.736;2023-04-01T19:22:27;6.38;;;5.78;;
54959;SDS011;40860;51.710;8.736;2023-04-01T19:26:40;6.78;;;6.13;;
54959;SDS011;40860;51.710;8.736;2023-04-01T19:30:53;5.80;;;5.30;;
54959;SDS011;40860;51.710;8.736;2023-04-01T19:35:03;3.03;;;2.72;;
54959;SDS011;40860;51.710;8.736;2023-04-01T19:39:21;2.17;;;2.08;;
54959;SDS011;40860;51.710;8.736;2023-04-01T19:43:38;2.50;;;2.40;;
54959;SDS011;40860;51.710;8.736;2023-04-01T19:47:56;2.95;;;2.75;;
54959;SDS011;40860;51.710;8.736;2023-04-01T19:52:07;3.28;;;3.08;;
54959;SDS011;40860;51.710;8.736;2023-04-01T19:56:17;3.42;;;3.22;;
54959;SDS011;40860;51.710;8.736;2023-04-01T20:00:23;3.53;;;3.22;;
54959;SDS011;40860;51.710;8.736;2023-04-01T20:04:34;3.10;;;2.90;;
54959;SDS011;40860;51.710;8.736;2023-04-01T20:08:45;3.42;;;3.15;;
54959;SDS011;40860;51.710;8.736;2023-04-01T20:12:54;2.83;;;2.55;;
54959;SDS011;40860;51.710;8.736;2023-04-01T20:17:18;2.30;;;2.17;;
54959;SDS011;40860;51.710;8.736;2023-04-01T20:21:34;2.30;;;2.20;;
54959;SDS011;40860;51.710;8.736;2023-04-01T20:25:40;2.10;;;2.00;;
54959;SDS011;40860;51.710;8.736;2023-04-01T20:29:52;2.40;;;2.20;;
54959;SDS011;40860;51.710;8.736;2023-04-01T20:34:26;2.78;;;2.58;;
54959;SDS011;40860;51.710;8.736;2023-04-01T20:43:23;3.00;;;2.80;;
54959;SDS011;40860;51.710;8.736;2023-04-01T20:47:41;3.35;;;3.15;;
54959;SDS011;40860;51.710;8.736;2023-04-01T20:51:53;3.10;;;2.90;;
54959;SDS011;40860;51.710;8.736;2023-04-01T20:56:05;2.80;;;2.60;;
54959;SDS011;40860;51.710;8.736;2023-04-01T21:00:30;2.70;;;2.50;;
54959;SDS011;40860;51.710;8.736;2023-04-01T21:04:39;2.70;;;2.58;;
54959;SDS011;40860;51.710;8.736;2023-04-01T21:08:59;2.30;;;2.20;;
54959;SDS011;40860;51.710;8.736;2023-04-01T21:13:18;2.75;;;2.55;;
54959;SDS011;40860;51.710;8.736;2023-04-01T21:17:42;1.95;;;1.85;;
54959;SDS011;40860;51.710;8.736;2023-04-01T21:22:15;2.30;;;2.10;;
54959;SDS011;40860;51.710;8.736;2023-04-01T21:26:42;2.00;;;1.90;;
54959;SDS011;40860;51.710;8.736;2023-04-01T21:30:57;1.70;;;1.60;;
54959;SDS011;40860;51.710;8.736;2023-04-01T21:35:14;1.75;;;1.65;;
54959;SDS011;40860;51.710;8.736;2023-04-01T21:39:37;1.55;;;1.45;;
54959;SDS011;40860;51.710;8.736;2023-04-01T21:44:01;1.38;;;1.38;;
54959;SDS011;40860;51.710;8.736;2023-04-01T21:48:35;1.95;;;1.85;;
54959;SDS011;40860;51.710;8.736;2023-04-01T21:53:09;1.70;;;1.60;;
54959;SDS011;40860;51.710;8.736;2023-04-01T22:02:20;1.80;;;1.70;;
54959;SDS011;40860;51.710;8.736;2023-04-01T22:06:51;1.80;;;1.70;;
54959;SDS011;40860;51.710;8.736;2023-04-01T22:11:05;1.70;;;1.60;;
54959;SDS011;40860;51.710;8.736;2023-04-01T22:15:17;1.88;;;1.77;;
54959;SDS011;40860;51.710;8.736;2023-04-01T22:19:33;2.10;;;2.00;;
54959;SDS011;40860;51.710;8.736;2023-04-01T22:23:46;2.22;;;2.13;;
54959;SDS011;40860;51.710;8.736;2023-04-01T22:27:55;2.20;;;2.10;;
54959;SDS011;40860;51.710;8.736;2023-04-01T22:32:03;2.40;;;2.30;;
54959;SDS011;40860;51.710;8.736;2023-04-01T22:36:12;2.88;;;2.67;;
54959;SDS011;40860;51.710;8.736;2023-04-01T22:40:25;2.90;;;2.70;;
54959;SDS011;40860;51.710;8.736;2023-04-01T22:44:37;2.40;;;2.30;;
54959;SDS011;40860;51.710;8.736;2023-04-01T22:48:49;3.08;;;2.88;;
54959;SDS011;40860;51.710;8.736;2023-04-01T22:52:59;3.17;;;2.97;;
54959;SDS011;40860;51.710;8.736;2023-04-01T22:57:10;3.33;;;3.13;;
54959;SDS011;40860;51.710;8.736;2023-04-01T23:01:18;3.42;;;3.22;;
54959;SDS011;40860;51.710;8.736;2023-04-01T23:05:23;3.55;;;3.35;;
54959;SDS011;40860;51.710;8.736;2023-04-01T23:09:27;3.78;;;3.47;;
54959;SDS011;40860;51.710;8.736;2023-04-01T23:13:34;3.80;;;3.50;;
54959;SDS011;40860;51.710;8.736;2023-04-01T23:17:50;3.72;;;3.42;;
54959;SDS011;40860;51.710;8.736;2023-04-01T23:22:04;4.65;;;4.15;;
54959;SDS011;40860;51.710;8.736;2023-04-01T23:26:19;4.57;;;4.18;;
54959;SDS011;40860;51.710;8.736;2023-04-01T23:34:51;5.60;;;5.20;;
54959;SDS011;40860;51.710;8.736;2023-04-01T23:38:56;5.47;;;4.97;;
54959;SDS011;40860;51.710;8.736;2023-04-01T23:43:10;5.20;;;4.80;;
54959;SDS011;40860;51.710;8.736;2023-04-01T23:47:17;5.30;;;4.80;;
54959;SDS011;40860;51.710;8.736;2023-04-01T23:51:23;4.97;;;4.57;;
54959;SDS011;40860;51.710;8.736;2023-04-01T23:55:30;5.38;;;4.65;;
54959;SDS011;40860;51.710;8.736;2023-04-01T23:59:35;5.30;;;4.80;;
